createdAt,value
2022-09-23T00:00:43.708Z,1018.39
2022-09-23T00:01:43.789Z,1018.37
2022-09-23T00:02:43.681Z,1018.35
2022-09-23T00:03:43.610Z,1018.35
2022-09-23T00:04:43.597Z,1018.31
2022-09-23T00:05:43.586Z,1018.33
2022-09-23T00:06:43.595Z,1018.28
2022-09-23T00:07:43.566Z,1018.29
2022-09-23T00:08:43.554Z,1018.31
2022-09-23T00:09:43.547Z,1018.30
2022-09-23T00:10:43.540Z,1018.25
2022-09-23T00:11:43.540Z,1018.23
2022-09-23T00:12:43.525Z,1018.22
2022-09-23T00:13:43.503Z,1018.21
2022-09-23T00:14:43.485Z,1018.22
2022-09-23T00:15:43.475Z,1018.28
2022-09-23T00:16:43.610Z,1018.24
2022-09-23T00:17:43.458Z,1018.31
2022-09-23T00:18:43.448Z,1018.22
2022-09-23T00:19:43.432Z,1018.29
2022-09-23T00:20:43.425Z,1018.23
2022-09-23T00:21:43.426Z,1018.17
2022-09-23T00:22:43.399Z,1018.20
2022-09-23T00:23:43.386Z,1018.23
2022-09-23T00:24:43.379Z,1018.19
2022-09-23T00:25:43.385Z,1018.20
2022-09-23T00:26:43.382Z,1018.24
2022-09-23T00:27:43.347Z,1018.15
2022-09-23T00:28:43.337Z,1018.17
2022-09-23T00:29:43.323Z,1018.14
2022-09-23T00:30:43.395Z,1018.16
2022-09-23T00:31:43.322Z,1018.08
2022-09-23T00:32:43.312Z,1018.15
2022-09-23T00:33:43.320Z,1018.13
2022-09-23T00:34:43.290Z,1018.15
2022-09-23T00:35:43.414Z,1018.16
2022-09-23T00:36:43.255Z,1018.14
2022-09-23T00:37:43.239Z,1018.08
2022-09-23T00:38:43.224Z,1018.10
2022-09-23T00:39:43.239Z,1018.11
2022-09-23T00:40:43.242Z,1018.08
2022-09-23T00:41:43.205Z,1018.07
2022-09-23T00:42:43.185Z,1018.09
2022-09-23T00:43:43.197Z,1018.09
2022-09-23T00:44:43.164Z,1018.07
2022-09-23T00:45:43.333Z,1018.07
2022-09-23T00:46:43.141Z,1018.08
2022-09-23T00:47:43.131Z,1018.10
2022-09-23T00:48:43.164Z,1018.09
2022-09-23T00:49:43.108Z,1018.05
2022-09-23T00:50:43.099Z,1018.05
2022-09-23T00:51:43.089Z,1018.02
2022-09-23T00:52:43.080Z,1018.01
2022-09-23T00:53:43.093Z,1018.03
2022-09-23T00:54:43.058Z,1018.04
2022-09-23T00:55:43.046Z,1018.01
2022-09-23T00:56:43.030Z,1018.03
2022-09-23T00:57:43.021Z,1017.99
2022-09-23T00:58:43.011Z,1018.01
2022-09-23T00:59:43.021Z,1018.01
2022-09-23T01:00:43.004Z,1017.97
2022-09-23T01:01:43.053Z,1017.94
2022-09-23T01:02:43.028Z,1017.98
2022-09-23T01:03:42.954Z,1017.97
2022-09-23T01:04:43.023Z,1017.92
2022-09-23T01:05:42.939Z,1017.92
2022-09-23T01:06:42.942Z,1017.90
2022-09-23T01:07:42.912Z,1017.87
2022-09-23T01:08:42.906Z,1017.88
2022-09-23T01:09:42.890Z,1017.84
2022-09-23T01:10:42.886Z,1017.84
2022-09-23T01:11:42.897Z,1017.84
2022-09-23T01:12:42.893Z,1017.85
2022-09-23T01:13:42.846Z,1017.83
2022-09-23T01:14:42.844Z,1017.84
2022-09-23T01:15:42.829Z,1017.87
2022-09-23T01:16:42.914Z,1017.79
2022-09-23T01:17:42.807Z,1017.87
2022-09-23T01:18:42.794Z,1017.74
2022-09-23T01:19:42.789Z,1017.81
2022-09-23T01:20:42.793Z,1017.79
2022-09-23T01:21:42.794Z,1017.78
2022-09-23T01:22:42.756Z,1017.77
2022-09-23T01:23:42.737Z,1017.74
2022-09-23T01:24:42.731Z,1017.76
2022-09-23T01:25:42.718Z,1017.78
2022-09-23T01:26:42.715Z,1017.72
2022-09-23T01:27:42.712Z,1017.71
2022-09-23T01:28:42.713Z,1017.67
2022-09-23T01:29:42.674Z,1017.72
2022-09-23T01:30:42.733Z,1017.70
2022-09-23T01:31:42.654Z,1017.75
2022-09-23T01:32:42.642Z,1017.73
2022-09-23T01:33:42.655Z,1017.73
2022-09-23T01:34:42.620Z,1017.74
2022-09-23T01:35:42.626Z,1017.65
2022-09-23T01:36:42.623Z,1017.72
2022-09-23T01:37:42.615Z,1017.70
2022-09-23T01:38:42.581Z,1017.64
2022-09-23T01:39:42.570Z,1017.65
2022-09-23T01:40:42.612Z,1017.61
2022-09-23T01:41:42.546Z,1017.66
2022-09-23T01:42:42.551Z,1017.61
2022-09-23T01:43:42.553Z,1017.70
2022-09-23T01:44:42.515Z,1017.64
2022-09-23T01:45:42.513Z,1017.66
2022-09-23T01:46:42.496Z,1017.63
2022-09-23T01:47:42.511Z,1017.60
2022-09-23T01:48:42.504Z,1017.58
2022-09-23T01:49:42.467Z,1017.67
2022-09-23T01:50:42.450Z,1017.61
2022-09-23T01:51:42.440Z,1017.58
2022-09-23T01:52:42.545Z,1017.64
2022-09-23T01:53:42.415Z,1017.60
2022-09-23T01:54:42.423Z,1017.61
2022-09-23T01:55:42.394Z,1017.68
2022-09-23T01:56:42.382Z,1017.63
2022-09-23T01:57:42.401Z,1017.62
2022-09-23T01:58:42.365Z,1017.57
2022-09-23T01:59:49.476Z,1017.59
2022-09-23T02:00:42.344Z,1017.65
2022-09-23T02:01:42.434Z,1017.63
2022-09-23T02:02:42.376Z,1017.60
2022-09-23T02:03:42.368Z,1017.61
2022-09-23T02:04:42.300Z,1017.53
2022-09-23T02:05:42.303Z,1017.59
2022-09-23T02:06:42.317Z,1017.55
2022-09-23T02:07:42.282Z,1017.52
2022-09-23T02:08:42.303Z,1017.58
2022-09-23T02:09:42.244Z,1017.54
2022-09-23T02:10:42.258Z,1017.53
2022-09-23T02:11:42.247Z,1017.52
2022-09-23T02:12:42.233Z,1017.57
2022-09-23T02:13:42.214Z,1017.54
2022-09-23T02:14:42.199Z,1017.51
2022-09-23T02:15:42.212Z,1017.50
2022-09-23T02:16:42.253Z,1017.48
2022-09-23T02:17:42.185Z,1017.46
2022-09-23T02:18:42.158Z,1017.48
2022-09-23T02:19:42.150Z,1017.49
2022-09-23T02:20:42.147Z,1017.45
2022-09-23T02:21:42.140Z,1017.48
2022-09-23T02:22:42.106Z,1017.43
2022-09-23T02:23:42.098Z,1017.45
2022-09-23T02:24:42.101Z,1017.43
2022-09-23T02:25:42.075Z,1017.42
2022-09-23T02:26:42.097Z,1017.37
2022-09-23T02:27:42.067Z,1017.37
2022-09-23T02:28:42.037Z,1017.41
2022-09-23T02:29:42.027Z,1017.32
2022-09-23T02:30:42.031Z,1017.35
2022-09-23T02:31:42.098Z,1017.30
2022-09-23T02:32:42.029Z,1017.32
2022-09-23T02:33:41.989Z,1017.27
2022-09-23T02:34:41.979Z,1017.24
2022-09-23T02:35:41.967Z,1017.21
2022-09-23T02:36:41.984Z,1017.26
2022-09-23T02:37:41.994Z,1017.21
2022-09-23T02:38:41.940Z,1017.20
2022-09-23T02:39:41.929Z,1017.19
2022-09-23T02:40:42.086Z,1017.19
2022-09-23T02:41:41.968Z,1017.15
2022-09-23T02:42:41.907Z,1017.16
2022-09-23T02:43:41.873Z,1017.12
2022-09-23T02:44:41.923Z,1017.16
2022-09-23T02:45:41.928Z,1017.11
2022-09-23T02:46:41.902Z,1017.12
2022-09-23T02:47:41.856Z,1017.13
2022-09-23T02:48:41.859Z,1017.15
2022-09-23T02:49:41.811Z,1017.14
2022-09-23T02:50:41.809Z,1017.14
2022-09-23T02:51:41.797Z,1017.15
2022-09-23T02:52:41.796Z,1017.09
2022-09-23T02:53:41.817Z,1017.12
2022-09-23T02:54:41.758Z,1017.11
2022-09-23T02:55:41.749Z,1017.06
2022-09-23T02:56:41.751Z,1017.08
2022-09-23T02:57:41.752Z,1017.10
2022-09-23T02:58:41.748Z,1017.06
2022-09-23T02:59:41.712Z,1016.99
2022-09-23T03:00:41.708Z,1017.03
2022-09-23T03:01:41.761Z,1017.04
2022-09-23T03:02:41.861Z,1016.98
2022-09-23T03:03:41.664Z,1016.97
2022-09-23T03:04:41.647Z,1017.02
2022-09-23T03:05:41.669Z,1016.96
2022-09-23T03:06:41.631Z,1016.95
2022-09-23T03:07:41.636Z,1016.99
2022-09-23T03:08:41.602Z,1016.96
2022-09-23T03:09:41.587Z,1017.02
2022-09-23T03:10:41.589Z,1016.98
2022-09-23T03:11:41.574Z,1017.00
2022-09-23T03:12:41.603Z,1016.97
2022-09-23T03:13:41.621Z,1016.96
2022-09-23T03:14:41.556Z,1016.97
2022-09-23T03:15:41.563Z,1016.90
2022-09-23T03:16:41.586Z,1016.91
2022-09-23T03:17:41.521Z,1016.91
2022-09-23T03:18:41.534Z,1016.92
2022-09-23T03:19:41.542Z,1016.91
2022-09-23T03:20:41.516Z,1016.91
2022-09-23T03:21:41.461Z,1016.85
2022-09-23T03:22:41.482Z,1016.94
2022-09-23T03:23:41.444Z,1016.88
2022-09-23T03:24:41.425Z,1016.81
2022-09-23T03:25:41.446Z,1016.84
2022-09-23T03:26:41.413Z,1016.85
2022-09-23T03:27:41.476Z,1016.82
2022-09-23T03:28:41.405Z,1016.87
2022-09-23T03:29:41.381Z,1016.83
2022-09-23T03:30:41.364Z,1016.85
2022-09-23T03:31:41.436Z,1016.88
2022-09-23T03:32:41.356Z,1016.81
2022-09-23T03:33:41.332Z,1016.82
2022-09-23T03:34:41.351Z,1016.82
2022-09-23T03:35:41.303Z,1016.76
2022-09-23T03:36:41.329Z,1016.78
2022-09-23T03:37:41.329Z,1016.78
2022-09-23T03:38:41.283Z,1016.76
2022-09-23T03:39:41.272Z,1016.79
2022-09-23T03:40:41.334Z,1016.75
2022-09-23T03:41:41.283Z,1016.77
2022-09-23T03:42:41.239Z,1016.74
2022-09-23T03:43:41.232Z,1016.78
2022-09-23T03:44:41.258Z,1016.77
2022-09-23T03:45:41.260Z,1016.72
2022-09-23T03:46:41.192Z,1016.65
2022-09-23T03:47:41.234Z,1016.68
2022-09-23T03:48:41.189Z,1016.71
2022-09-23T03:49:41.168Z,1016.68
2022-09-23T03:50:41.188Z,1016.69
2022-09-23T03:51:44.536Z,1016.63
2022-09-23T03:52:41.193Z,1016.73
2022-09-23T03:53:41.112Z,1016.66
2022-09-23T03:54:41.094Z,1016.74
2022-09-23T03:55:41.148Z,1016.65
2022-09-23T03:56:41.085Z,1016.64
2022-09-23T03:57:41.109Z,1016.65
2022-09-23T03:58:41.059Z,1016.66
2022-09-23T03:59:41.062Z,1016.56
2022-09-23T04:00:41.131Z,1016.61
2022-09-23T04:01:41.079Z,1016.59
2022-09-23T04:02:41.029Z,1016.60
2022-09-23T04:03:41.041Z,1016.63
2022-09-23T04:04:41.018Z,1016.61
2022-09-23T04:05:41.086Z,1016.60
2022-09-23T04:06:40.983Z,1016.59
2022-09-23T04:07:41.014Z,1016.54
2022-09-23T04:08:40.945Z,1016.58
2022-09-23T04:09:40.981Z,1016.57
2022-09-23T04:10:40.957Z,1016.57
2022-09-23T04:11:40.955Z,1016.53
2022-09-23T04:12:40.914Z,1016.52
2022-09-23T04:13:40.899Z,1016.52
2022-09-23T04:14:40.928Z,1016.52
2022-09-23T04:15:40.912Z,1016.55
2022-09-23T04:16:40.902Z,1016.47
2022-09-23T04:17:40.874Z,1016.53
2022-09-23T04:18:40.846Z,1016.46
2022-09-23T04:19:40.846Z,1016.48
2022-09-23T04:20:40.846Z,1016.43
2022-09-23T04:21:40.860Z,1016.41
2022-09-23T04:22:40.873Z,1016.47
2022-09-23T04:23:40.790Z,1016.45
2022-09-23T04:24:40.784Z,1016.42
2022-09-23T04:25:40.793Z,1016.48
2022-09-23T04:26:40.761Z,1016.48
2022-09-23T04:27:40.806Z,1016.43
2022-09-23T04:28:40.734Z,1016.40
2022-09-23T04:29:40.796Z,1016.44
2022-09-23T04:30:40.722Z,1016.40
2022-09-23T04:31:40.917Z,1016.42
2022-09-23T04:32:40.744Z,1016.40
2022-09-23T04:33:40.701Z,1016.46
2022-09-23T04:34:40.678Z,1016.45
2022-09-23T04:35:40.704Z,1016.41
2022-09-23T04:36:40.670Z,1016.34
2022-09-23T04:37:40.658Z,1016.37
2022-09-23T04:38:40.652Z,1016.35
2022-09-23T04:39:40.642Z,1016.40
2022-09-23T04:40:40.696Z,1016.37
2022-09-23T04:41:40.610Z,1016.35
2022-09-23T04:42:40.639Z,1016.36
2022-09-23T04:43:40.643Z,1016.35
2022-09-23T04:44:40.603Z,1016.37
2022-09-23T04:45:40.562Z,1016.37
2022-09-23T04:46:40.616Z,1016.32
2022-09-23T04:47:40.542Z,1016.36
2022-09-23T04:48:40.559Z,1016.33
2022-09-23T04:49:40.553Z,1016.36
2022-09-23T04:50:40.509Z,1016.33
2022-09-23T04:51:40.498Z,1016.33
2022-09-23T04:52:40.479Z,1016.30
2022-09-23T04:53:40.479Z,1016.26
2022-09-23T04:54:40.551Z,1016.32
2022-09-23T04:55:40.475Z,1016.38
2022-09-23T04:56:40.442Z,1016.28
2022-09-23T04:57:40.435Z,1016.33
2022-09-23T04:58:40.421Z,1016.36
2022-09-23T04:59:40.465Z,1016.35
2022-09-23T05:00:40.456Z,1016.29
2022-09-23T05:01:40.584Z,1016.37
2022-09-23T05:02:40.427Z,1016.33
2022-09-23T05:03:40.388Z,1016.32
2022-09-23T05:04:40.423Z,1016.32
2022-09-23T05:05:40.391Z,1016.37
2022-09-23T05:06:40.342Z,1016.32
2022-09-23T05:07:40.325Z,1016.31
2022-09-23T05:08:40.315Z,1016.32
2022-09-23T05:09:40.331Z,1016.39
2022-09-23T05:10:40.328Z,1016.36
2022-09-23T05:11:40.288Z,1016.34
2022-09-23T05:12:40.338Z,1016.39
2022-09-23T05:13:40.322Z,1016.36
2022-09-23T05:14:40.320Z,1016.37
2022-09-23T05:15:40.301Z,1016.35
2022-09-23T05:16:40.309Z,1016.34
2022-09-23T05:17:40.237Z,1016.32
2022-09-23T05:18:40.233Z,1016.31
2022-09-23T05:19:40.203Z,1016.32
2022-09-23T05:20:40.240Z,1016.40
2022-09-23T05:21:40.221Z,1016.38
2022-09-23T05:22:40.183Z,1016.34
2022-09-23T05:23:40.186Z,1016.29
2022-09-23T05:24:40.143Z,1016.33
2022-09-23T05:25:40.182Z,1016.35
2022-09-23T05:26:40.130Z,1016.30
2022-09-23T05:27:40.149Z,1016.29
2022-09-23T05:28:40.145Z,1016.33
2022-09-23T05:29:40.106Z,1016.37
2022-09-23T05:30:40.081Z,1016.35
2022-09-23T05:31:40.144Z,1016.30
2022-09-23T05:32:40.069Z,1016.35
2022-09-23T05:33:40.065Z,1016.36
2022-09-23T05:34:40.074Z,1016.36
2022-09-23T05:35:40.060Z,1016.33
2022-09-23T05:36:40.071Z,1016.30
2022-09-23T05:37:40.027Z,1016.30
2022-09-23T05:38:39.996Z,1016.31
2022-09-23T05:39:40.018Z,1016.35
2022-09-23T05:40:40.065Z,1016.36
2022-09-23T05:41:39.967Z,1016.35
2022-09-23T05:42:39.962Z,1016.28
2022-09-23T05:43:39.953Z,1016.32
2022-09-23T05:44:39.980Z,1016.30
2022-09-23T05:45:39.961Z,1016.31
2022-09-23T05:46:39.984Z,1016.25
2022-09-23T05:47:39.906Z,1016.29
2022-09-23T05:48:39.932Z,1016.30
2022-09-23T05:49:58.651Z,1016.30
2022-09-23T05:50:40.872Z,1016.33
2022-09-23T05:51:39.888Z,1016.33
2022-09-23T05:52:39.867Z,1016.28
2022-09-23T05:53:39.845Z,1016.30
2022-09-23T05:54:39.863Z,1016.31
2022-09-23T05:55:39.821Z,1016.25
2022-09-23T05:56:39.834Z,1016.20
2022-09-23T05:57:39.804Z,1016.25
2022-09-23T05:58:39.824Z,1016.23
2022-09-23T05:59:39.778Z,1016.25
2022-09-23T06:00:39.796Z,1016.26
2022-09-23T06:01:39.873Z,1016.28
2022-09-23T06:02:39.838Z,1016.25
2022-09-23T06:03:39.744Z,1016.24
2022-09-23T06:04:39.742Z,1016.30
2022-09-23T06:05:39.749Z,1016.31
2022-09-23T06:06:39.722Z,1016.24
2022-09-23T06:07:39.687Z,1016.29
2022-09-23T06:08:39.699Z,1016.25
2022-09-23T06:09:39.685Z,1016.31
2022-09-23T06:10:39.673Z,1016.27
2022-09-23T06:11:39.723Z,1016.34
2022-09-23T06:12:39.642Z,1016.28
2022-09-23T06:13:39.640Z,1016.30
2022-09-23T06:14:39.616Z,1016.28
2022-09-23T06:15:39.701Z,1016.30
2022-09-23T06:16:39.624Z,1016.31
2022-09-23T06:17:39.601Z,1016.32
2022-09-23T06:18:39.570Z,1016.31
2022-09-23T06:19:39.573Z,1016.34
2022-09-23T06:20:39.557Z,1016.29
2022-09-23T06:21:39.583Z,1016.28
2022-09-23T06:22:40.249Z,1016.36
2022-09-23T06:23:41.529Z,1016.30
2022-09-23T06:24:39.636Z,1016.38
2022-09-23T06:25:39.520Z,1016.32
2022-09-23T06:26:39.561Z,1016.30
2022-09-23T06:27:39.489Z,1016.35
2022-09-23T06:28:39.467Z,1016.29
2022-09-23T06:29:39.489Z,1016.28
2022-09-23T06:30:39.469Z,1016.32
2022-09-23T06:31:39.453Z,1016.30
2022-09-23T06:32:39.437Z,1016.26
2022-09-23T06:33:39.423Z,1016.29
2022-09-23T06:34:49.874Z,1016.29
2022-09-23T06:35:40.936Z,1016.33
2022-09-23T06:36:43.983Z,1016.35
2022-09-23T06:37:40.426Z,1016.36
2022-09-23T06:38:39.381Z,1016.32
2022-09-23T06:39:39.366Z,1016.37
2022-09-23T06:40:39.441Z,1016.38
2022-09-23T06:41:39.464Z,1016.35
2022-09-23T06:42:39.348Z,1016.40
2022-09-23T06:43:39.346Z,1016.34
2022-09-23T06:44:39.336Z,1016.37
2022-09-23T06:45:39.377Z,1016.35
2022-09-23T06:46:39.343Z,1016.34
2022-09-23T06:47:39.275Z,1016.36
2022-09-23T06:48:42.813Z,1016.35
2022-09-23T06:49:40.292Z,1016.39
2022-09-23T06:50:39.287Z,1016.34
2022-09-23T06:51:39.280Z,1016.33
2022-09-23T06:52:39.210Z,1016.41
2022-09-23T06:53:39.207Z,1016.41
2022-09-23T06:54:39.248Z,1016.41
2022-09-23T06:55:39.207Z,1016.39
2022-09-23T06:56:39.932Z,1016.37
2022-09-23T06:57:39.167Z,1016.41
2022-09-23T06:58:39.152Z,1016.40
2022-09-23T06:59:39.161Z,1016.47
2022-09-23T07:00:39.124Z,1016.42
2022-09-23T07:01:39.417Z,1016.35
2022-09-23T07:02:39.446Z,1016.39
2022-09-23T07:03:39.098Z,1016.42
2022-09-23T07:04:39.117Z,1016.39
2022-09-23T07:05:39.119Z,1016.35
2022-09-23T07:06:39.094Z,1016.38
2022-09-23T07:07:39.098Z,1016.34
2022-09-23T07:08:39.083Z,1016.40
2022-09-23T07:09:39.038Z,1016.43
2022-09-23T07:10:39.019Z,1016.39
2022-09-23T07:11:39.013Z,1016.43
2022-09-23T07:12:39.049Z,1016.40
2022-09-23T07:13:39.058Z,1016.39
2022-09-23T07:14:38.971Z,1016.41
2022-09-23T07:15:39.067Z,1016.49
2022-09-23T07:16:38.966Z,1016.43
2022-09-23T07:17:38.945Z,1016.41
2022-09-23T07:18:39.011Z,1016.44
2022-09-23T07:19:38.924Z,1016.42
2022-09-23T07:20:38.909Z,1016.46
2022-09-23T07:21:38.944Z,1016.42
2022-09-23T07:22:38.931Z,1016.46
2022-09-23T07:23:38.903Z,1016.43
2022-09-23T07:24:38.872Z,1016.41
2022-09-23T07:25:38.886Z,1016.47
2022-09-23T07:26:43.478Z,1016.47
2022-09-23T07:27:39.833Z,1016.41
2022-09-23T07:28:38.905Z,1016.46
2022-09-23T07:29:48.104Z,1016.45
2022-09-23T07:30:44.903Z,1016.46
2022-09-23T07:31:40.234Z,1016.42
2022-09-23T07:32:47.060Z,1016.41
2022-09-23T07:33:40.037Z,1016.47
2022-09-23T07:34:38.801Z,1016.49
2022-09-23T07:35:38.755Z,1016.45
2022-09-23T07:36:38.735Z,1016.45
2022-09-23T07:37:38.741Z,1016.40
2022-09-23T07:38:44.226Z,1016.45
2022-09-23T07:39:39.747Z,1016.40
2022-09-23T07:40:38.751Z,1016.37
2022-09-23T07:41:38.684Z,1016.40
2022-09-23T07:42:38.688Z,1016.34
2022-09-23T07:43:38.687Z,1016.32
2022-09-23T07:44:38.672Z,1016.38
2022-09-23T07:45:38.646Z,1016.31
2022-09-23T07:46:38.791Z,1016.31
2022-09-23T07:47:38.612Z,1016.33
2022-09-23T07:48:38.656Z,1016.30
2022-09-23T07:49:38.591Z,1016.31
2022-09-23T07:50:38.584Z,1016.33
2022-09-23T07:51:38.565Z,1016.29
2022-09-23T07:52:38.597Z,1016.35
2022-09-23T07:53:38.599Z,1016.40
2022-09-23T07:54:38.601Z,1016.34
2022-09-23T07:55:38.555Z,1016.36
2022-09-23T07:56:38.575Z,1016.34
2022-09-23T07:57:38.498Z,1016.31
2022-09-23T07:58:38.500Z,1016.35
2022-09-23T07:59:38.584Z,1016.41
2022-09-23T08:00:38.511Z,1016.39
2022-09-23T08:01:38.589Z,1016.36
2022-09-23T08:02:38.507Z,1016.31
2022-09-23T08:03:38.438Z,1016.30
2022-09-23T08:04:38.449Z,1016.34
2022-09-23T08:06:30.333Z,1016.32
2022-09-23T08:07:30.335Z,1016.32
2022-09-23T08:08:30.326Z,1016.33
2022-09-23T08:09:30.322Z,1016.34
2022-09-23T08:10:30.299Z,1016.33
2022-09-23T08:11:30.284Z,1016.33
2022-09-23T08:12:30.269Z,1016.25
2022-09-23T08:13:30.265Z,1016.29
2022-09-23T08:14:30.277Z,1016.30
2022-09-23T08:15:30.294Z,1016.24
2022-09-23T08:16:30.406Z,1016.28
2022-09-23T08:17:30.220Z,1016.27
2022-09-23T08:18:30.213Z,1016.19
2022-09-23T08:19:30.212Z,1016.23
2022-09-23T08:20:30.205Z,1016.19
2022-09-23T08:21:30.175Z,1016.24
2022-09-23T08:22:30.167Z,1016.25
2022-09-23T08:23:30.155Z,1016.22
2022-09-23T08:24:30.166Z,1016.31
2022-09-23T08:25:33.322Z,1016.23
2022-09-23T08:26:30.119Z,1016.23
2022-09-23T08:27:30.109Z,1016.26
2022-09-23T08:28:30.098Z,1016.25
2022-09-23T08:29:30.084Z,1016.27
2022-09-23T08:30:30.096Z,1016.20
2022-09-23T08:31:30.065Z,1016.26
2022-09-23T08:32:30.070Z,1016.27
2022-09-23T08:33:30.046Z,1016.20
2022-09-23T08:34:30.048Z,1016.23
2022-09-23T08:35:30.024Z,1016.26
2022-09-23T08:36:30.036Z,1016.23
2022-09-23T08:37:29.996Z,1016.23
2022-09-23T08:38:29.990Z,1016.24
2022-09-23T08:39:30.000Z,1016.22
2022-09-23T08:40:30.036Z,1016.23
2022-09-23T08:41:29.980Z,1016.23
2022-09-23T08:42:29.947Z,1016.18
2022-09-23T08:43:29.944Z,1016.19
2022-09-23T08:44:29.926Z,1016.15
2022-09-23T08:45:29.918Z,1016.16
2022-09-23T08:46:29.967Z,1016.20
2022-09-23T08:47:29.894Z,1016.16
2022-09-23T08:48:29.911Z,1016.16
2022-09-23T08:49:29.877Z,1016.19
2022-09-23T08:50:29.858Z,1016.19
2022-09-23T08:51:29.852Z,1016.16
2022-09-23T08:52:29.848Z,1016.12
2022-09-23T08:53:29.825Z,1016.17
2022-09-23T08:54:29.815Z,1016.12
2022-09-23T08:55:29.808Z,1016.14
2022-09-23T08:56:29.797Z,1016.08
2022-09-23T08:57:29.802Z,1016.12
2022-09-23T08:58:29.796Z,1016.03
2022-09-23T08:59:29.760Z,1016.03
2022-09-23T09:00:29.747Z,1016.08
2022-09-23T09:01:29.841Z,1016.04
2022-09-23T09:02:29.793Z,1015.99
2022-09-23T09:03:29.745Z,1016.07
2022-09-23T09:04:29.732Z,1016.02
2022-09-23T09:05:29.691Z,1016.04
2022-09-23T09:06:29.688Z,1016.03
2022-09-23T09:07:36.566Z,1016.07
2022-09-23T09:08:30.682Z,1016.07
2022-09-23T09:09:29.654Z,1016.00
2022-09-23T09:10:29.644Z,1016.03
2022-09-23T09:11:29.629Z,1016.05
2022-09-23T09:12:29.619Z,1016.06
2022-09-23T09:13:29.632Z,1016.01
2022-09-23T09:14:29.594Z,1016.02
2022-09-23T09:15:29.664Z,1015.99
2022-09-23T09:16:55.468Z,1016.01
2022-09-23T09:17:34.842Z,1015.98
2022-09-23T09:18:29.602Z,1016.03
2022-09-23T09:19:29.549Z,1016.05
2022-09-23T09:20:29.557Z,1016.03
2022-09-23T09:21:29.524Z,1016.03
2022-09-23T09:22:29.547Z,1016.06
2022-09-23T09:23:29.514Z,1016.02
2022-09-23T09:24:29.549Z,1016.05
2022-09-23T09:25:33.522Z,1016.00
2022-09-23T09:26:29.469Z,1016.02
2022-09-23T09:27:29.459Z,1016.06
2022-09-23T09:28:29.445Z,1016.00
2022-09-23T09:29:36.776Z,1016.02
2022-09-23T09:30:30.426Z,1016.01
2022-09-23T09:31:29.509Z,1015.96
2022-09-23T09:32:29.401Z,1015.96
2022-09-23T09:33:29.388Z,1015.96
2022-09-23T09:34:29.404Z,1015.94
2022-09-23T09:35:29.376Z,1015.95
2022-09-23T09:36:30.946Z,1016.00
2022-09-23T09:37:31.738Z,1015.98
2022-09-23T09:38:29.337Z,1015.96
2022-09-23T09:39:29.327Z,1015.89
2022-09-23T09:40:29.383Z,1015.93
2022-09-23T09:41:29.305Z,1015.94
2022-09-23T09:42:29.321Z,1015.92
2022-09-23T09:43:32.163Z,1015.94
2022-09-23T09:44:29.272Z,1015.93
2022-09-23T09:45:29.259Z,1015.82
2022-09-23T09:46:29.464Z,1015.85
2022-09-23T09:47:29.241Z,1015.83
2022-09-23T09:48:29.251Z,1015.74
2022-09-23T09:49:29.249Z,1015.78
2022-09-23T09:50:29.215Z,1015.76
2022-09-23T09:51:29.195Z,1015.82
2022-09-23T09:52:29.202Z,1015.74
2022-09-23T09:53:29.125Z,1015.75
2022-09-23T09:54:29.143Z,1015.67
2022-09-23T09:55:29.102Z,1015.63
2022-09-23T09:56:29.084Z,1015.65
2022-09-23T09:57:32.229Z,1015.67
2022-09-23T09:58:30.070Z,1015.66
2022-09-23T09:59:29.054Z,1015.64
2022-09-23T10:00:29.070Z,1015.64
2022-09-23T10:01:29.082Z,1015.60
2022-09-23T10:02:29.023Z,1015.57
2022-09-23T10:03:29.008Z,1015.58
2022-09-23T10:04:29.076Z,1015.56
2022-09-23T10:05:28.985Z,1015.61
2022-09-23T10:06:28.975Z,1015.56
2022-09-23T10:07:29.002Z,1015.51
2022-09-23T10:08:28.973Z,1015.49
2022-09-23T10:09:28.939Z,1015.48
2022-09-23T10:10:32.941Z,1015.48
2022-09-23T10:11:28.916Z,1015.52
2022-09-23T10:12:28.933Z,1015.54
2022-09-23T10:13:28.932Z,1015.45
2022-09-23T10:14:28.905Z,1015.49
2022-09-23T10:15:28.872Z,1015.49
2022-09-23T10:16:28.893Z,1015.46
2022-09-23T10:17:28.851Z,1015.45
2022-09-23T10:18:28.851Z,1015.49
2022-09-23T10:19:28.851Z,1015.53
2022-09-23T10:20:28.814Z,1015.51
2022-09-23T10:21:28.830Z,1015.48
2022-09-23T10:22:28.797Z,1015.45
2022-09-23T10:23:28.788Z,1015.51
2022-09-23T10:24:28.795Z,1015.41
2022-09-23T10:25:28.789Z,1015.46
2022-09-23T10:26:28.775Z,1015.45
2022-09-23T10:27:28.748Z,1015.42
2022-09-23T10:28:28.730Z,1015.45
2022-09-23T10:29:28.722Z,1015.42
2022-09-23T10:30:28.756Z,1015.43
2022-09-23T10:31:28.707Z,1015.50
2022-09-23T10:32:28.689Z,1015.43
2022-09-23T10:33:28.678Z,1015.44
2022-09-23T10:34:28.666Z,1015.47
2022-09-23T10:35:28.684Z,1015.43
2022-09-23T10:36:28.650Z,1015.43
2022-09-23T10:37:28.642Z,1015.45
2022-09-23T10:38:28.638Z,1015.38
2022-09-23T10:39:28.626Z,1015.42
2022-09-23T10:40:28.740Z,1015.42
2022-09-23T10:41:28.594Z,1015.42
2022-09-23T10:42:28.581Z,1015.42
2022-09-23T10:43:28.620Z,1015.44
2022-09-23T10:44:28.567Z,1015.44
2022-09-23T10:45:28.554Z,1015.40
2022-09-23T10:46:28.640Z,1015.46
2022-09-23T10:47:28.546Z,1015.48
2022-09-23T10:48:28.551Z,1015.38
2022-09-23T10:49:28.534Z,1015.45
2022-09-23T10:50:28.500Z,1015.34
2022-09-23T10:51:28.488Z,1015.40
2022-09-23T10:52:28.481Z,1015.34
2022-09-23T10:53:28.507Z,1015.38
2022-09-23T10:54:28.479Z,1015.41
2022-09-23T10:55:28.451Z,1015.38
2022-09-23T10:56:28.465Z,1015.39
2022-09-23T10:57:28.427Z,1015.29
2022-09-23T10:58:28.421Z,1015.33
2022-09-23T10:59:28.426Z,1015.34
2022-09-23T11:00:28.396Z,1015.34
2022-09-23T11:01:28.431Z,1015.33
2022-09-23T11:02:28.382Z,1015.29
2022-09-23T11:03:28.365Z,1015.25
2022-09-23T11:04:28.388Z,1015.21
2022-09-23T11:05:28.340Z,1015.30
2022-09-23T11:06:28.347Z,1015.25
2022-09-23T11:07:28.325Z,1015.27
2022-09-23T11:08:28.315Z,1015.28
2022-09-23T11:09:28.324Z,1015.24
2022-09-23T11:10:45.508Z,1015.28
2022-09-23T11:11:29.281Z,1015.24
2022-09-23T11:12:28.288Z,1015.17
2022-09-23T11:13:28.262Z,1015.13
2022-09-23T11:14:28.279Z,1015.21
2022-09-23T11:15:28.249Z,1015.16
2022-09-23T11:16:28.285Z,1015.10
2022-09-23T11:17:28.222Z,1015.15
2022-09-23T11:18:28.211Z,1015.06
2022-09-23T11:19:28.219Z,1015.10
2022-09-23T11:20:28.193Z,1015.07
2022-09-23T11:21:28.178Z,1015.07
2022-09-23T11:22:28.173Z,1015.04
2022-09-23T11:23:28.155Z,1015.04
2022-09-23T11:24:28.173Z,1015.01
2022-09-23T11:25:28.155Z,1015.07
2022-09-23T11:26:32.828Z,1014.96
2022-09-23T11:27:29.125Z,1014.97
2022-09-23T11:28:28.130Z,1014.98
2022-09-23T11:29:28.120Z,1014.94
2022-09-23T11:30:28.152Z,1014.96
2022-09-23T11:31:28.074Z,1014.92
2022-09-23T11:32:28.060Z,1014.93
2022-09-23T11:33:28.069Z,1014.96
2022-09-23T11:34:28.042Z,1014.92
2022-09-23T11:35:28.054Z,1014.88
2022-09-23T11:36:28.024Z,1014.79
2022-09-23T11:37:28.013Z,1014.83
2022-09-23T11:38:28.039Z,1014.84
2022-09-23T11:39:27.992Z,1014.79
2022-09-23T11:40:28.027Z,1014.72
2022-09-23T11:41:27.962Z,1014.77
2022-09-23T11:42:27.959Z,1014.74
2022-09-23T11:43:27.947Z,1014.71
2022-09-23T11:44:27.974Z,1014.75
2022-09-23T11:45:27.936Z,1014.68
2022-09-23T11:46:28.002Z,1014.69
2022-09-23T11:47:27.913Z,1014.64
2022-09-23T11:48:27.889Z,1014.68
2022-09-23T11:49:27.877Z,1014.65
2022-09-23T11:50:27.874Z,1014.63
2022-09-23T11:51:27.875Z,1014.67
2022-09-23T11:52:27.851Z,1014.65
2022-09-23T11:53:27.840Z,1014.62
2022-09-23T11:54:27.828Z,1014.61
2022-09-23T11:55:27.837Z,1014.59
2022-09-23T11:56:34.636Z,1014.56
2022-09-23T11:57:33.375Z,1014.54
2022-09-23T11:58:28.841Z,1014.58
2022-09-23T11:59:38.481Z,1014.59
2022-09-23T12:00:28.787Z,1014.52
2022-09-23T12:01:35.995Z,1014.63
2022-09-23T12:02:31.001Z,1014.68
2022-09-23T12:03:39.674Z,1014.66
2022-09-23T12:04:29.431Z,1014.60
2022-09-23T12:05:27.808Z,1014.57
2022-09-23T12:06:27.701Z,1014.54